sensor_id;sensor_type;location;lat;lon;timestamp;temperature;humidity
21445;DHT22;10883;51.946;20.140;2023-03-01T00:02:04;-6.60;99.90
21445;DHT22;10883;51.946;20.140;2023-03-01T00:04:30;-6.60;99.90
21445;DHT22;10883;51.946;20.140;2023-03-01T00:06:56;-6.60;99.90
21445;DHT22;10883;51.946;20.140;2023-03-01T00:09:22;-6.60;99.90
21445;DHT22;10883;51.946;20.140;2023-03-01T00:11:48;-6.60;99.90
21445;DHT22;10883;51.946;20.140;2023-03-01T00:14:14;-6.60;99.90
21445;DHT22;10883;51.946;20.140;2023-03-01T00:16:43;-6.60;99.90
21445;DHT22;10883;51.946;20.140;2023-03-01T00:19:15;-6.60;99.90
21445;DHT22;10883;51.946;20.140;2023-03-01T00:21:41;-6.60;99.90
21445;DHT22;10883;51.946;20.140;2023-03-01T00:24:07;-6.70;99.90
21445;DHT22;10883;51.946;20.140;2023-03-01T00:26:33;-6.70;99.90
21445;DHT22;10883;51.946;20.140;2023-03-01T00:29:00;-6.70;99.90
21445;DHT22;10883;51.946;20.140;2023-03-01T00:31:28;-6.70;99.90
21445;DHT22;10883;51.946;20.140;2023-03-01T00:34:01;-6.80;99.90
21445;DHT22;10883;51.946;20.140;2023-03-01T00:36:32;-6.80;99.90
21445;DHT22;10883;51.946;20.140;2023-03-01T00:38:58;-6.80;99.90
21445;DHT22;10883;51.946;20.140;2023-03-01T00:41:24;-6.80;99.90
21445;DHT22;10883;51.946;20.140;2023-03-01T00:43:52;-6.80;99.90
21445;DHT22;10883;51.946;20.140;2023-03-01T00:46:22;-6.80;99.90
21445;DHT22;10883;51.946;20.140;2023-03-01T00:48:48;-6.90;99.90
21445;DHT22;10883;51.946;20.140;2023-03-01T00:51:19;-6.90;99.90
21445;DHT22;10883;51.946;20.140;2023-03-01T00:53:46;-6.90;99.90
21445;DHT22;10883;51.946;20.140;2023-03-01T00:56:13;-6.80;99.90
21445;DHT22;10883;51.946;20.140;2023-03-01T00:58:39;-6.80;99.90
21445;DHT22;10883;51.946;20.140;2023-03-01T01:01:14;-6.80;99.90
21445;DHT22;10883;51.946;20.140;2023-03-01T01:03:51;-6.80;99.90
21445;DHT22;10883;51.946;20.140;2023-03-01T01:06:33;-6.80;99.90
21445;DHT22;10883;51.946;20.140;2023-03-01T01:08:59;-6.80;99.90
21445;DHT22;10883;51.946;20.140;2023-03-01T01:11:27;-6.80;99.90
21445;DHT22;10883;51.946;20.140;2023-03-01T01:13:54;-6.80;99.90
21445;DHT22;10883;51.946;20.140;2023-03-01T01:16:22;-6.80;99.90
21445;DHT22;10883;51.946;20.140;2023-03-01T01:18:48;-6.80;99.90
21445;DHT22;10883;51.946;20.140;2023-03-01T01:21:16;-6.70;99.90
21445;DHT22;10883;51.946;20.140;2023-03-01T01:23:44;-6.70;99.90
21445;DHT22;10883;51.946;20.140;2023-03-01T01:26:12;-6.70;99.90
21445;DHT22;10883;51.946;20.140;2023-03-01T01:28:38;-6.80;99.90
21445;DHT22;10883;51.946;20.140;2023-03-01T01:31:05;-6.80;99.90
21445;DHT22;10883;51.946;20.140;2023-03-01T01:33:31;-6.80;99.90
21445;DHT22;10883;51.946;20.140;2023-03-01T01:35:57;-6.80;99.90
21445;DHT22;10883;51.946;20.140;2023-03-01T01:38:22;-6.80;99.90
21445;DHT22;10883;51.946;20.140;2023-03-01T01:40:49;-6.70;99.90
21445;DHT22;10883;51.946;20.140;2023-03-01T01:43:36;-6.70;99.90
21445;DHT22;10883;51.946;20.140;2023-03-01T01:46:33;-6.80;99.90
21445;DHT22;10883;51.946;20.140;2023-03-01T01:49:12;-6.80;99.90
21445;DHT22;10883;51.946;20.140;2023-03-01T01:51:44;-6.80;99.90
21445;DHT22;10883;51.946;20.140;2023-03-01T01:54:22;-6.80;99.90
21445;DHT22;10883;51.946;20.140;2023-03-01T01:56:56;-6.80;99.90
21445;DHT22;10883;51.946;20.140;2023-03-01T01:59:24;-6.80;99.90
21445;DHT22;10883;51.946;20.140;2023-03-01T02:01:52;-6.80;99.90
21445;DHT22;10883;51.946;20.140;2023-03-01T02:04:18;-6.80;99.90
21445;DHT22;10883;51.946;20.140;2023-03-01T02:06:49;-6.80;99.90
21445;DHT22;10883;51.946;20.140;2023-03-01T02:09:18;-6.70;99.90
21445;DHT22;10883;51.946;20.140;2023-03-01T02:11:46;-6.60;99.90
21445;DHT22;10883;51.946;20.140;2023-03-01T02:14:12;-6.70;99.90
21445;DHT22;10883;51.946;20.140;2023-03-01T02:16:38;-6.80;99.90
21445;DHT22;10883;51.946;20.140;2023-03-01T02:19:04;-6.80;99.90
21445;DHT22;10883;51.946;20.140;2023-03-01T02:22:01;-6.70;99.90
21445;DHT22;10883;51.946;20.140;2023-03-01T02:27:18;-6.80;99.90
21445;DHT22;10883;51.946;20.140;2023-03-01T02:29:47;-6.80;99.90
21445;DHT22;10883;51.946;20.140;2023-03-01T02:32:14;-6.80;99.90
21445;DHT22;10883;51.946;20.140;2023-03-01T02:34:41;-6.80;99.90
21445;DHT22;10883;51.946;20.140;2023-03-01T02:37:14;-6.80;99.90
21445;DHT22;10883;51.946;20.140;2023-03-01T02:39:48;-6.80;99.90
21445;DHT22;10883;51.946;20.140;2023-03-01T02:42:23;-6.90;99.90
21445;DHT22;10883;51.946;20.140;2023-03-01T02:44:51;-6.80;99.90
21445;DHT22;10883;51.946;20.140;2023-03-01T02:47:17;-6.90;99.90
21445;DHT22;10883;51.946;20.140;2023-03-01T02:49:43;-6.80;99.90
21445;DHT22;10883;51.946;20.140;2023-03-01T02:52:54;-6.80;99.90
21445;DHT22;10883;51.946;20.140;2023-03-01T02:55:17;-6.80;99.90
21445;DHT22;10883;51.946;20.140;2023-03-01T02:57:45;-6.80;99.90
21445;DHT22;10883;51.946;20.140;2023-03-01T03:00:19;-6.80;99.90
21445;DHT22;10883;51.946;20.140;2023-03-01T03:02:51;-6.80;99.90
21445;DHT22;10883;51.946;20.140;2023-03-01T03:05:23;-6.80;99.90
21445;DHT22;10883;51.946;20.140;2023-03-01T03:07:50;-6.70;99.90
21445;DHT22;10883;51.946;20.140;2023-03-01T03:10:19;-6.70;99.90
21445;DHT22;10883;51.946;20.140;2023-03-01T03:12:53;-6.60;99.90
21445;DHT22;10883;51.946;20.140;2023-03-01T03:15:20;-6.70;99.90
21445;DHT22;10883;51.946;20.140;2023-03-01T03:17:47;-6.70;99.90
21445;DHT22;10883;51.946;20.140;2023-03-01T03:20:15;-6.70;99.90
21445;DHT22;10883;51.946;20.140;2023-03-01T03:22:45;-6.70;99.90
21445;DHT22;10883;51.946;20.140;2023-03-01T03:25:11;-6.80;99.90
21445;DHT22;10883;51.946;20.140;2023-03-01T03:27:42;-6.80;99.90
21445;DHT22;10883;51.946;20.140;2023-03-01T03:30:11;-6.70;99.90
21445;DHT22;10883;51.946;20.140;2023-03-01T03:32:39;-6.70;99.90
21445;DHT22;10883;51.946;20.140;2023-03-01T03:35:05;-6.70;99.90
21445;DHT22;10883;51.946;20.140;2023-03-01T03:37:39;-6.70;99.90
21445;DHT22;10883;51.946;20.140;2023-03-01T03:40:24;-6.70;99.90
21445;DHT22;10883;51.946;20.140;2023-03-01T03:42:50;-6.80;99.90
21445;DHT22;10883;51.946;20.140;2023-03-01T03:45:17;-6.50;99.90
21445;DHT22;10883;51.946;20.140;2023-03-01T03:47:43;-6.40;99.90
21445;DHT22;10883;51.946;20.140;2023-03-01T03:50:14;-6.40;99.90
21445;DHT22;10883;51.946;20.140;2023-03-01T03:52:40;-6.40;99.90
21445;DHT22;10883;51.946;20.140;2023-03-01T03:55:07;-6.20;99.90
21445;DHT22;10883;51.946;20.140;2023-03-01T03:57:37;-6.20;99.90
21445;DHT22;10883;51.946;20.140;2023-03-01T04:00:04;-6.30;99.90
21445;DHT22;10883;51.946;20.140;2023-03-01T04:02:30;-6.30;99.90
21445;DHT22;10883;51.946;20.140;2023-03-01T04:04:56;-6.40;99.90
21445;DHT22;10883;51.946;20.140;2023-03-01T04:07:22;-6.40;99.90
21445;DHT22;10883;51.946;20.140;2023-03-01T04:09:48;-6.40;99.90
21445;DHT22;10883;51.946;20.140;2023-03-01T04:12:14;-6.50;99.90
21445;DHT22;10883;51.946;20.140;2023-03-01T04:14:39;-6.50;99.90
21445;DHT22;10883;51.946;20.140;2023-03-01T04:17:05;-6.50;99.90
21445;DHT22;10883;51.946;20.140;2023-03-01T04:19:32;-6.60;99.90
21445;DHT22;10883;51.946;20.140;2023-03-01T04:22:02;-6.60;99.90
21445;DHT22;10883;51.946;20.140;2023-03-01T04:24:35;-6.50;99.90
21445;DHT22;10883;51.946;20.140;2023-03-01T04:27:01;-6.50;99.90
21445;DHT22;10883;51.946;20.140;2023-03-01T04:29:27;-6.50;99.90
21445;DHT22;10883;51.946;20.140;2023-03-01T04:31:53;-6.60;99.90
21445;DHT22;10883;51.946;20.140;2023-03-01T04:34:19;-6.60;99.90
21445;DHT22;10883;51.946;20.140;2023-03-01T04:36:45;-6.50;99.90
21445;DHT22;10883;51.946;20.140;2023-03-01T04:39:10;-6.60;99.90
21445;DHT22;10883;51.946;20.140;2023-03-01T04:41:39;-6.60;99.90
21445;DHT22;10883;51.946;20.140;2023-03-01T04:44:09;-6.60;99.90
21445;DHT22;10883;51.946;20.140;2023-03-01T04:46:35;-6.60;99.90
21445;DHT22;10883;51.946;20.140;2023-03-01T04:49:02;-6.40;99.90
21445;DHT22;10883;51.946;20.140;2023-03-01T04:51:28;-6.10;99.90
21445;DHT22;10883;51.946;20.140;2023-03-01T04:53:54;-6.00;99.90
21445;DHT22;10883;51.946;20.140;2023-03-01T04:56:20;-6.00;99.90
21445;DHT22;10883;51.946;20.140;2023-03-01T04:58:48;-6.00;99.90
21445;DHT22;10883;51.946;20.140;2023-03-01T05:01:17;-6.00;99.90
21445;DHT22;10883;51.946;20.140;2023-03-01T05:03:46;-6.10;99.90
21445;DHT22;10883;51.946;20.140;2023-03-01T05:06:12;-6.10;99.90
21445;DHT22;10883;51.946;20.140;2023-03-01T05:08:38;-6.10;99.90
21445;DHT22;10883;51.946;20.140;2023-03-01T05:11:05;-6.10;99.90
21445;DHT22;10883;51.946;20.140;2023-03-01T05:13:31;-6.10;99.90
21445;DHT22;10883;51.946;20.140;2023-03-01T05:15:59;-5.90;99.90
21445;DHT22;10883;51.946;20.140;2023-03-01T05:18:27;-5.80;99.90
21445;DHT22;10883;51.946;20.140;2023-03-01T05:21:03;-5.80;99.90
21445;DHT22;10883;51.946;20.140;2023-03-01T05:23:30;-5.80;99.90
21445;DHT22;10883;51.946;20.140;2023-03-01T05:26:03;-5.80;99.90
21445;DHT22;10883;51.946;20.140;2023-03-01T05:28:30;-5.80;99.90
21445;DHT22;10883;51.946;20.140;2023-03-01T05:30:56;-5.70;99.90
21445;DHT22;10883;51.946;20.140;2023-03-01T05:33:23;-5.80;99.90
21445;DHT22;10883;51.946;20.140;2023-03-01T05:35:50;-5.80;99.90
21445;DHT22;10883;51.946;20.140;2023-03-01T05:38:17;-5.70;99.90
21445;DHT22;10883;51.946;20.140;2023-03-01T05:40:45;-5.60;99.90
21445;DHT22;10883;51.946;20.140;2023-03-01T05:43:12;-5.60;99.90
21445;DHT22;10883;51.946;20.140;2023-03-01T05:45:40;-5.50;99.90
21445;DHT22;10883;51.946;20.140;2023-03-01T05:48:07;-5.40;99.90
21445;DHT22;10883;51.946;20.140;2023-03-01T05:50:36;-5.30;99.90
21445;DHT22;10883;51.946;20.140;2023-03-01T05:53:12;-5.20;99.90
21445;DHT22;10883;51.946;20.140;2023-03-01T05:55:39;-5.10;99.90
21445;DHT22;10883;51.946;20.140;2023-03-01T05:58:07;-5.00;99.90
21445;DHT22;10883;51.946;20.140;2023-03-01T06:00:34;-4.90;99.90
21445;DHT22;10883;51.946;20.140;2023-03-01T06:03:01;-4.80;99.90
21445;DHT22;10883;51.946;20.140;2023-03-01T06:05:27;-4.50;99.90
21445;DHT22;10883;51.946;20.140;2023-03-01T06:07:53;-4.30;99.90
21445;DHT22;10883;51.946;20.140;2023-03-01T06:10:20;-4.20;99.90
21445;DHT22;10883;51.946;20.140;2023-03-01T06:12:46;-4.00;99.90
21445;DHT22;10883;51.946;20.140;2023-03-01T06:15:13;-3.90;99.90
21445;DHT22;10883;51.946;20.140;2023-03-01T06:17:42;-3.80;99.90
21445;DHT22;10883;51.946;20.140;2023-03-01T06:20:19;-3.60;99.90
21445;DHT22;10883;51.946;20.140;2023-03-01T06:22:47;-3.30;99.90
21445;DHT22;10883;51.946;20.140;2023-03-01T06:25:15;-3.00;99.90
21445;DHT22;10883;51.946;20.140;2023-03-01T06:27:41;-2.60;99.90
21445;DHT22;10883;51.946;20.140;2023-03-01T06:30:09;-2.30;99.90
21445;DHT22;10883;51.946;20.140;2023-03-01T06:32:36;-1.90;99.90
21445;DHT22;10883;51.946;20.140;2023-03-01T06:35:03;-1.50;99.90
21445;DHT22;10883;51.946;20.140;2023-03-01T06:37:29;-1.10;99.90
21445;DHT22;10883;51.946;20.140;2023-03-01T06:39:55;-0.70;99.90
21445;DHT22;10883;51.946;20.140;2023-03-01T06:42:21;-0.30;99.90
21445;DHT22;10883;51.946;20.140;2023-03-01T06:44:46;0.10;99.90
21445;DHT22;10883;51.946;20.140;2023-03-01T06:47:12;0.50;99.90
21445;DHT22;10883;51.946;20.140;2023-03-01T06:49:38;0.80;99.90
21445;DHT22;10883;51.946;20.140;2023-03-01T06:52:04;1.30;99.90
21445;DHT22;10883;51.946;20.140;2023-03-01T06:54:30;1.80;99.90
21445;DHT22;10883;51.946;20.140;2023-03-01T06:56:55;2.20;99.90
21445;DHT22;10883;51.946;20.140;2023-03-01T06:59:21;2.70;99.90
21445;DHT22;10883;51.946;20.140;2023-03-01T07:01:47;3.10;99.90
21445;DHT22;10883;51.946;20.140;2023-03-01T07:04:13;3.40;99.90
21445;DHT22;10883;51.946;20.140;2023-03-01T07:06:39;3.80;99.90
21445;DHT22;10883;51.946;20.140;2023-03-01T07:09:04;4.00;99.90
21445;DHT22;10883;51.946;20.140;2023-03-01T07:11:30;4.50;99.90
21445;DHT22;10883;51.946;20.140;2023-03-01T07:13:56;4.80;99.90
21445;DHT22;10883;51.946;20.140;2023-03-01T07:16:22;5.00;99.90
21445;DHT22;10883;51.946;20.140;2023-03-01T07:18:48;5.10;99.90
21445;DHT22;10883;51.946;20.140;2023-03-01T07:21:14;5.40;99.90
21445;DHT22;10883;51.946;20.140;2023-03-01T07:23:42;5.50;99.90
21445;DHT22;10883;51.946;20.140;2023-03-01T07:26:08;5.50;99.90
21445;DHT22;10883;51.946;20.140;2023-03-01T07:28:33;5.60;99.90
21445;DHT22;10883;51.946;20.140;2023-03-01T07:31:05;5.70;99.90
21445;DHT22;10883;51.946;20.140;2023-03-01T07:33:31;5.80;99.90
21445;DHT22;10883;51.946;20.140;2023-03-01T07:35:59;6.10;99.90
21445;DHT22;10883;51.946;20.140;2023-03-01T07:38:26;6.50;99.90
21445;DHT22;10883;51.946;20.140;2023-03-01T07:40:52;7.00;99.90
21445;DHT22;10883;51.946;20.140;2023-03-01T07:43:18;7.40;99.90
21445;DHT22;10883;51.946;20.140;2023-03-01T07:45:43;7.70;99.90
21445;DHT22;10883;51.946;20.140;2023-03-01T07:48:09;7.70;99.90
21445;DHT22;10883;51.946;20.140;2023-03-01T07:50:35;7.80;99.40
21445;DHT22;10883;51.946;20.140;2023-03-01T07:53:01;7.90;98.80
21445;DHT22;10883;51.946;20.140;2023-03-01T07:55:28;8.20;97.00
21445;DHT22;10883;51.946;20.140;2023-03-01T07:57:53;8.40;96.70
21445;DHT22;10883;51.946;20.140;2023-03-01T08:00:19;8.60;95.50
21445;DHT22;10883;51.946;20.140;2023-03-01T08:02:45;9.00;95.50
21445;DHT22;10883;51.946;20.140;2023-03-01T08:05:11;9.50;93.90
21445;DHT22;10883;51.946;20.140;2023-03-01T08:07:37;10.10;92.20
21445;DHT22;10883;51.946;20.140;2023-03-01T08:10:03;10.30;91.30
21445;DHT22;10883;51.946;20.140;2023-03-01T08:12:29;11.10;89.40
21445;DHT22;10883;51.946;20.140;2023-03-01T08:14:55;11.60;89.20
21445;DHT22;10883;51.946;20.140;2023-03-01T08:17:20;12.00;85.40
21445;DHT22;10883;51.946;20.140;2023-03-01T08:19:46;12.40;83.70
21445;DHT22;10883;51.946;20.140;2023-03-01T08:22:12;12.90;80.00
21445;DHT22;10883;51.946;20.140;2023-03-01T08:24:38;13.40;76.80
21445;DHT22;10883;51.946;20.140;2023-03-01T08:27:04;13.30;76.10
21445;DHT22;10883;51.946;20.140;2023-03-01T08:29:33;13.40;78.30
21445;DHT22;10883;51.946;20.140;2023-03-01T08:31:59;13.70;73.80
21445;DHT22;10883;51.946;20.140;2023-03-01T08:34:25;13.90;73.70
21445;DHT22;10883;51.946;20.140;2023-03-01T08:36:50;13.90;72.40
21445;DHT22;10883;51.946;20.140;2023-03-01T08:39:19;14.30;72.50
21445;DHT22;10883;51.946;20.140;2023-03-01T08:41:46;14.90;70.70
21445;DHT22;10883;51.946;20.140;2023-03-01T08:44:13;15.20;69.10
21445;DHT22;10883;51.946;20.140;2023-03-01T08:46:41;14.80;68.70
21445;DHT22;10883;51.946;20.140;2023-03-01T08:49:16;14.30;71.20
21445;DHT22;10883;51.946;20.140;2023-03-01T08:51:43;15.00;69.40
21445;DHT22;10883;51.946;20.140;2023-03-01T08:54:15;14.50;68.60
21445;DHT22;10883;51.946;20.140;2023-03-01T08:56:42;15.20;68.10
21445;DHT22;10883;51.946;20.140;2023-03-01T08:59:08;16.10;65.50
21445;DHT22;10883;51.946;20.140;2023-03-01T09:01:34;16.60;64.00
21445;DHT22;10883;51.946;20.140;2023-03-01T09:04:00;16.90;63.40
21445;DHT22;10883;51.946;20.140;2023-03-01T09:06:26;17.60;61.60
21445;DHT22;10883;51.946;20.140;2023-03-01T09:08:52;18.00;60.50
21445;DHT22;10883;51.946;20.140;2023-03-01T09:11:20;18.10;59.90
21445;DHT22;10883;51.946;20.140;2023-03-01T09:13:47;18.00;58.60
21445;DHT22;10883;51.946;20.140;2023-03-01T09:16:18;17.90;58.80
21445;DHT22;10883;51.946;20.140;2023-03-01T09:18:45;18.40;58.30
21445;DHT22;10883;51.946;20.140;2023-03-01T09:21:14;18.30;57.20
21445;DHT22;10883;51.946;20.140;2023-03-01T09:23:44;17.90;58.10
21445;DHT22;10883;51.946;20.140;2023-03-01T09:26:19;18.40;58.00
21445;DHT22;10883;51.946;20.140;2023-03-01T09:28:47;19.50;55.90
21445;DHT22;10883;51.946;20.140;2023-03-01T09:31:14;19.70;55.40
21445;DHT22;10883;51.946;20.140;2023-03-01T09:33:41;19.40;54.50
21445;DHT22;10883;51.946;20.140;2023-03-01T09:36:11;19.20;54.90
21445;DHT22;10883;51.946;20.140;2023-03-01T09:38:37;19.70;54.60
21445;DHT22;10883;51.946;20.140;2023-03-01T09:46:10;20.50;53.00
21445;DHT22;10883;51.946;20.140;2023-03-01T09:48:46;20.50;52.20
21445;DHT22;10883;51.946;20.140;2023-03-01T09:51:32;20.00;54.00
21445;DHT22;10883;51.946;20.140;2023-03-01T09:54:01;19.30;53.80
21445;DHT22;10883;51.946;20.140;2023-03-01T09:56:41;19.40;54.80
21445;DHT22;10883;51.946;20.140;2023-03-01T09:59:30;20.00;54.00
21445;DHT22;10883;51.946;20.140;2023-03-01T10:04:48;21.30;51.90
21445;DHT22;10883;51.946;20.140;2023-03-01T10:07:36;21.40;51.60
21445;DHT22;10883;51.946;20.140;2023-03-01T10:10:10;21.20;51.80
21445;DHT22;10883;51.946;20.140;2023-03-01T10:12:42;21.70;51.00
21445;DHT22;10883;51.946;20.140;2023-03-01T10:15:25;21.30;51.40
21445;DHT22;10883;51.946;20.140;2023-03-01T10:18:06;21.30;51.60
21445;DHT22;10883;51.946;20.140;2023-03-01T10:20:57;22.20;51.50
21445;DHT22;10883;51.946;20.140;2023-03-01T10:23:25;22.40;50.10
21445;DHT22;10883;51.946;20.140;2023-03-01T10:26:25;22.20;49.80
21445;DHT22;10883;51.946;20.140;2023-03-01T10:29:04;20.90;51.30
21445;DHT22;10883;51.946;20.140;2023-03-01T10:31:51;20.50;52.40
21445;DHT22;10883;51.946;20.140;2023-03-01T10:34:34;20.20;52.60
21445;DHT22;10883;51.946;20.140;2023-03-01T10:37:14;20.70;52.80
21445;DHT22;10883;51.946;20.140;2023-03-01T10:42:33;21.30;52.20
21445;DHT22;10883;51.946;20.140;2023-03-01T10:45:38;21.10;51.50
21445;DHT22;10883;51.946;20.140;2023-03-01T10:48:19;21.40;51.70
21445;DHT22;10883;51.946;20.140;2023-03-01T10:51:04;21.60;51.30
21445;DHT22;10883;51.946;20.140;2023-03-01T10:53:41;22.10;50.40
21445;DHT22;10883;51.946;20.140;2023-03-01T10:56:09;22.10;50.90
21445;DHT22;10883;51.946;20.140;2023-03-01T10:58:37;22.20;50.80
21445;DHT22;10883;51.946;20.140;2023-03-01T11:03:42;23.60;49.40
21445;DHT22;10883;51.946;20.140;2023-03-01T11:08:45;25.50;46.80
21445;DHT22;10883;51.946;20.140;2023-03-01T11:11:32;25.80;46.80
21445;DHT22;10883;51.946;20.140;2023-03-01T11:13:59;25.90;46.90
21445;DHT22;10883;51.946;20.140;2023-03-01T11:16:34;26.40;45.70
21445;DHT22;10883;51.946;20.140;2023-03-01T11:22:01;27.90;44.70
21445;DHT22;10883;51.946;20.140;2023-03-01T11:24:40;27.70;44.10
21445;DHT22;10883;51.946;20.140;2023-03-01T11:27:20;28.30;43.50
21445;DHT22;10883;51.946;20.140;2023-03-01T11:30:07;29.00;42.90
21445;DHT22;10883;51.946;20.140;2023-03-01T11:32:48;29.50;42.20
21445;DHT22;10883;51.946;20.140;2023-03-01T11:35:34;30.30;42.40
21445;DHT22;10883;51.946;20.140;2023-03-01T11:40:57;31.50;40.80
21445;DHT22;10883;51.946;20.140;2023-03-01T11:59:59;28.60;41.00
21445;DHT22;10883;51.946;20.140;2023-03-01T12:10:57;18.80;52.20
21445;DHT22;10883;51.946;20.140;2023-03-01T12:19:05;27.90;44.60
21445;DHT22;10883;51.946;20.140;2023-03-01T12:27:31;33.90;38.80
21445;DHT22;10883;51.946;20.140;2023-03-01T12:30:21;35.10;38.90
21445;DHT22;10883;51.946;20.140;2023-03-01T12:51:14;36.80;36.40
21445;DHT22;10883;51.946;20.140;2023-03-01T12:53:47;36.50;36.80
21445;DHT22;10883;51.946;20.140;2023-03-01T12:56:22;36.60;37.20
21445;DHT22;10883;51.946;20.140;2023-03-01T13:01:51;37.20;36.30
21445;DHT22;10883;51.946;20.140;2023-03-01T13:04:51;37.50;36.50
21445;DHT22;10883;51.946;20.140;2023-03-01T13:07:34;36.00;36.90
21445;DHT22;10883;51.946;20.140;2023-03-01T13:20:47;33.90;38.70
21445;DHT22;10883;51.946;20.140;2023-03-01T13:26:09;34.80;38.10
21445;DHT22;10883;51.946;20.140;2023-03-01T13:34:01;33.00;38.80
21445;DHT22;10883;51.946;20.140;2023-03-01T13:44:32;33.50;38.80
21445;DHT22;10883;51.946;20.140;2023-03-01T13:52:45;30.20;40.50
21445;DHT22;10883;51.946;20.140;2023-03-01T13:57:45;26.20;44.00
21445;DHT22;10883;51.946;20.140;2023-03-01T14:00:44;25.10;45.80
21445;DHT22;10883;51.946;20.140;2023-03-01T14:05:36;21.50;51.40
21445;DHT22;10883;51.946;20.140;2023-03-01T14:08:03;20.90;53.10
21445;DHT22;10883;51.946;20.140;2023-03-01T14:13:48;19.00;56.90
21445;DHT22;10883;51.946;20.140;2023-03-01T14:16:49;18.40;58.10
21445;DHT22;10883;51.946;20.140;2023-03-01T14:21:46;18.00;59.40
21445;DHT22;10883;51.946;20.140;2023-03-01T14:24:22;17.30;61.10
21445;DHT22;10883;51.946;20.140;2023-03-01T14:26:49;16.50;63.40
21445;DHT22;10883;51.946;20.140;2023-03-01T14:29:35;15.70;65.30
21445;DHT22;10883;51.946;20.140;2023-03-01T14:32:28;15.30;66.70
21445;DHT22;10883;51.946;20.140;2023-03-01T14:34:56;15.00;68.00
21445;DHT22;10883;51.946;20.140;2023-03-01T14:37:33;14.80;68.70
21445;DHT22;10883;51.946;20.140;2023-03-01T14:40:01;14.50;69.60
21445;DHT22;10883;51.946;20.140;2023-03-01T14:42:36;14.20;70.00
21445;DHT22;10883;51.946;20.140;2023-03-01T14:45:04;13.70;71.10
21445;DHT22;10883;51.946;20.140;2023-03-01T14:47:34;13.40;72.10
21445;DHT22;10883;51.946;20.140;2023-03-01T14:50:25;12.90;74.10
21445;DHT22;10883;51.946;20.140;2023-03-01T14:53:00;12.80;74.80
21445;DHT22;10883;51.946;20.140;2023-03-01T14:55:35;12.70;75.00
21445;DHT22;10883;51.946;20.140;2023-03-01T14:58:17;12.80;75.10
21445;DHT22;10883;51.946;20.140;2023-03-01T15:00:59;12.70;75.40
21445;DHT22;10883;51.946;20.140;2023-03-01T15:03:33;12.60;76.00
21445;DHT22;10883;51.946;20.140;2023-03-01T15:06:04;12.30;77.10
21445;DHT22;10883;51.946;20.140;2023-03-01T15:08:31;12.00;78.10
21445;DHT22;10883;51.946;20.140;2023-03-01T15:11:32;11.80;78.70
21445;DHT22;10883;51.946;20.140;2023-03-01T15:13:58;11.50;80.00
21445;DHT22;10883;51.946;20.140;2023-03-01T15:16:34;11.20;81.40
21445;DHT22;10883;51.946;20.140;2023-03-01T15:19:07;10.80;83.00
21445;DHT22;10883;51.946;20.140;2023-03-01T15:21:35;10.60;84.40
21445;DHT22;10883;51.946;20.140;2023-03-01T15:26:49;9.90;88.30
21445;DHT22;10883;51.946;20.140;2023-03-01T15:29:21;9.60;89.80
21445;DHT22;10883;51.946;20.140;2023-03-01T15:31:58;9.30;90.80
21445;DHT22;10883;51.946;20.140;2023-03-01T15:34:31;9.10;91.70
21445;DHT22;10883;51.946;20.140;2023-03-01T15:36:59;8.90;92.60
21445;DHT22;10883;51.946;20.140;2023-03-01T15:39:36;8.60;93.80
21445;DHT22;10883;51.946;20.140;2023-03-01T15:42:13;8.40;95.10
21445;DHT22;10883;51.946;20.140;2023-03-01T15:44:49;8.20;96.70
21445;DHT22;10883;51.946;20.140;2023-03-01T15:47:29;8.00;98.70
21445;DHT22;10883;51.946;20.140;2023-03-01T15:49:57;7.60;99.90
21445;DHT22;10883;51.946;20.140;2023-03-01T15:52:34;7.50;99.90
21445;DHT22;10883;51.946;20.140;2023-03-01T15:55:05;7.30;99.90
21445;DHT22;10883;51.946;20.140;2023-03-01T15:57:31;7.00;99.90
21445;DHT22;10883;51.946;20.140;2023-03-01T15:59:57;6.80;99.90
21445;DHT22;10883;51.946;20.140;2023-03-01T16:02:23;6.70;99.90
21445;DHT22;10883;51.946;20.140;2023-03-01T16:04:50;6.30;99.90
21445;DHT22;10883;51.946;20.140;2023-03-01T16:07:16;5.90;99.90
21445;DHT22;10883;51.946;20.140;2023-03-01T16:09:42;5.70;99.90
21445;DHT22;10883;51.946;20.140;2023-03-01T16:12:15;5.40;99.90
21445;DHT22;10883;51.946;20.140;2023-03-01T16:14:41;5.20;99.90
21445;DHT22;10883;51.946;20.140;2023-03-01T16:17:07;5.00;99.90
21445;DHT22;10883;51.946;20.140;2023-03-01T16:19:36;4.70;99.90
21445;DHT22;10883;51.946;20.140;2023-03-01T16:22:03;4.40;99.90
21445;DHT22;10883;51.946;20.140;2023-03-01T16:24:29;4.10;99.90
21445;DHT22;10883;51.946;20.140;2023-03-01T16:26:55;3.80;99.90
21445;DHT22;10883;51.946;20.140;2023-03-01T16:29:21;3.60;99.90
21445;DHT22;10883;51.946;20.140;2023-03-01T16:31:47;3.40;99.90
21445;DHT22;10883;51.946;20.140;2023-03-01T16:34:13;3.10;99.90
21445;DHT22;10883;51.946;20.140;2023-03-01T16:36:39;3.00;99.90
21445;DHT22;10883;51.946;20.140;2023-03-01T16:39:09;2.80;99.90
21445;DHT22;10883;51.946;20.140;2023-03-01T16:41:35;2.60;99.90
21445;DHT22;10883;51.946;20.140;2023-03-01T16:44:01;2.40;99.90
21445;DHT22;10883;51.946;20.140;2023-03-01T16:46:28;2.30;99.90
21445;DHT22;10883;51.946;20.140;2023-03-01T16:48:54;2.50;99.90
21445;DHT22;10883;51.946;20.140;2023-03-01T16:51:20;2.40;99.90
21445;DHT22;10883;51.946;20.140;2023-03-01T16:53:47;2.30;99.90
21445;DHT22;10883;51.946;20.140;2023-03-01T16:56:13;2.20;99.90
21445;DHT22;10883;51.946;20.140;2023-03-01T16:58:40;2.20;99.90
21445;DHT22;10883;51.946;20.140;2023-03-01T17:01:12;2.30;99.90
21445;DHT22;10883;51.946;20.140;2023-03-01T17:03:39;2.40;99.90
21445;DHT22;10883;51.946;20.140;2023-03-01T17:06:08;2.40;99.90
21445;DHT22;10883;51.946;20.140;2023-03-01T17:08:34;2.30;99.90
21445;DHT22;10883;51.946;20.140;2023-03-01T17:11:09;2.20;99.90
21445;DHT22;10883;51.946;20.140;2023-03-01T17:13:36;2.00;99.90
21445;DHT22;10883;51.946;20.140;2023-03-01T17:16:04;1.80;99.90
21445;DHT22;10883;51.946;20.140;2023-03-01T17:18:30;1.60;99.90
21445;DHT22;10883;51.946;20.140;2023-03-01T17:20:56;1.40;99.90
21445;DHT22;10883;51.946;20.140;2023-03-01T17:23:22;1.20;99.90
21445;DHT22;10883;51.946;20.140;2023-03-01T17:25:47;1.00;99.90
21445;DHT22;10883;51.946;20.140;2023-03-01T17:28:13;0.90;99.90
21445;DHT22;10883;51.946;20.140;2023-03-01T17:30:43;0.90;99.90
21445;DHT22;10883;51.946;20.140;2023-03-01T17:33:10;0.80;99.90
21445;DHT22;10883;51.946;20.140;2023-03-01T17:35:36;0.70;99.90
21445;DHT22;10883;51.946;20.140;2023-03-01T17:38:03;0.70;99.90
21445;DHT22;10883;51.946;20.140;2023-03-01T17:40:29;0.60;99.90
21445;DHT22;10883;51.946;20.140;2023-03-01T17:42:57;0.50;99.90
21445;DHT22;10883;51.946;20.140;2023-03-01T17:45:23;0.50;99.90
21445;DHT22;10883;51.946;20.140;2023-03-01T17:47:48;0.40;99.90